sensor_id;sensor_type;location;lat;lon;timestamp;P1;durP1;ratioP1;P2;durP2;ratioP2
32780;SDS011;19136;47.032;15.502;2023-04-21T00:02:24;15.50;;;8.57;;
32780;SDS011;19136;47.032;15.502;2023-04-21T00:04:51;12.88;;;8.18;;
32780;SDS011;19136;47.032;15.502;2023-04-21T00:07:17;14.50;;;8.80;;
32780;SDS011;19136;47.032;15.502;2023-04-21T00:09:44;16.40;;;9.18;;
32780;SDS011;19136;47.032;15.502;2023-04-21T00:12:11;15.25;;;8.75;;
32780;SDS011;19136;47.032;15.502;2023-04-21T00:14:37;15.30;;;8.63;;
32780;SDS011;19136;47.032;15.502;2023-04-21T00:17:04;17.13;;;9.20;;
32780;SDS011;19136;47.032;15.502;2023-04-21T00:19:30;16.00;;;9.75;;
32780;SDS011;19136;47.032;15.502;2023-04-21T00:21:56;16.67;;;9.10;;
32780;SDS011;19136;47.032;15.502;2023-04-21T00:24:25;18.75;;;8.85;;
32780;SDS011;19136;47.032;15.502;2023-04-21T00:26:51;13.60;;;8.18;;
32780;SDS011;19136;47.032;15.502;2023-04-21T00:29:17;18.35;;;9.50;;
32780;SDS011;19136;47.032;15.502;2023-04-21T00:31:42;16.08;;;9.05;;
32780;SDS011;19136;47.032;15.502;2023-04-21T00:34:08;12.38;;;8.07;;
32780;SDS011;19136;47.032;15.502;2023-04-21T00:36:34;17.92;;;8.75;;
32780;SDS011;19136;47.032;15.502;2023-04-21T00:38:59;14.35;;;7.60;;
32780;SDS011;19136;47.032;15.502;2023-04-21T00:41:26;12.90;;;7.80;;
32780;SDS011;19136;47.032;15.502;2023-04-21T00:44:05;15.40;;;8.52;;
32780;SDS011;19136;47.032;15.502;2023-04-21T00:46:32;12.45;;;8.05;;
32780;SDS011;19136;47.032;15.502;2023-04-21T00:48:58;14.60;;;8.90;;
32780;SDS011;19136;47.032;15.502;2023-04-21T00:51:25;12.70;;;7.80;;
32780;SDS011;19136;47.032;15.502;2023-04-21T00:53:52;15.10;;;8.60;;
32780;SDS011;19136;47.032;15.502;2023-04-21T00:56:18;18.05;;;9.45;;
32780;SDS011;19136;47.032;15.502;2023-04-21T00:58:44;16.17;;;8.15;;
32780;SDS011;19136;47.032;15.502;2023-04-21T01:01:10;14.90;;;9.02;;
32780;SDS011;19136;47.032;15.502;2023-04-21T01:03:37;18.55;;;9.02;;
32780;SDS011;19136;47.032;15.502;2023-04-21T01:06:03;14.75;;;7.97;;
32780;SDS011;19136;47.032;15.502;2023-04-21T01:08:29;14.63;;;8.30;;
32780;SDS011;19136;47.032;15.502;2023-04-21T01:10:55;18.00;;;8.30;;
32780;SDS011;19136;47.032;15.502;2023-04-21T01:13:20;12.55;;;8.57;;
32780;SDS011;19136;47.032;15.502;2023-04-21T01:15:46;11.57;;;7.63;;
32780;SDS011;19136;47.032;15.502;2023-04-21T01:18:12;12.85;;;8.52;;
32780;SDS011;19136;47.032;15.502;2023-04-21T01:20:39;15.10;;;8.52;;
32780;SDS011;19136;47.032;15.502;2023-04-21T01:23:05;13.07;;;7.97;;
32780;SDS011;19136;47.032;15.502;2023-04-21T01:25:31;15.23;;;8.10;;
32780;SDS011;19136;47.032;15.502;2023-04-21T01:27:57;16.05;;;7.70;;
32780;SDS011;19136;47.032;15.502;2023-04-21T01:30:23;12.88;;;7.50;;
32780;SDS011;19136;47.032;15.502;2023-04-21T01:32:49;12.25;;;7.72;;
32780;SDS011;19136;47.032;15.502;2023-04-21T01:35:17;18.45;;;7.70;;
32780;SDS011;19136;47.032;15.502;2023-04-21T01:37:42;12.55;;;7.78;;
32780;SDS011;19136;47.032;15.502;2023-04-21T01:40:10;14.10;;;7.97;;
32780;SDS011;19136;47.032;15.502;2023-04-21T01:42:37;11.70;;;6.95;;
32780;SDS011;19136;47.032;15.502;2023-04-21T01:45:03;16.42;;;8.07;;
32780;SDS011;19136;47.032;15.502;2023-04-21T01:47:29;14.25;;;7.38;;
32780;SDS011;19136;47.032;15.502;2023-04-21T01:49:55;14.93;;;7.25;;
32780;SDS011;19136;47.032;15.502;2023-04-21T01:52:20;12.50;;;8.15;;
32780;SDS011;19136;47.032;15.502;2023-04-21T01:54:46;12.98;;;7.30;;
32780;SDS011;19136;47.032;15.502;2023-04-21T01:57:13;12.38;;;7.65;;
32780;SDS011;19136;47.032;15.502;2023-04-21T01:59:38;11.50;;;7.80;;
32780;SDS011;19136;47.032;15.502;2023-04-21T02:02:04;16.42;;;7.80;;
32780;SDS011;19136;47.032;15.502;2023-04-21T02:04:32;12.10;;;7.57;;
32780;SDS011;19136;47.032;15.502;2023-04-21T02:06:58;11.73;;;7.38;;
32780;SDS011;19136;47.032;15.502;2023-04-21T02:09:24;12.98;;;8.60;;
32780;SDS011;19136;47.032;15.502;2023-04-21T02:11:51;18.65;;;7.82;;
32780;SDS011;19136;47.032;15.502;2023-04-21T02:14:17;17.45;;;7.30;;
32780;SDS011;19136;47.032;15.502;2023-04-21T02:16:43;15.88;;;8.00;;
32780;SDS011;19136;47.032;15.502;2023-04-21T02:19:10;17.85;;;9.38;;
32780;SDS011;19136;47.032;15.502;2023-04-21T02:21:36;12.63;;;8.32;;
32780;SDS011;19136;47.032;15.502;2023-04-21T02:24:04;16.98;;;9.10;;
32780;SDS011;19136;47.032;15.502;2023-04-21T02:26:30;13.50;;;7.72;;
32780;SDS011;19136;47.032;15.502;2023-04-21T02:28:58;15.40;;;7.68;;
32780;SDS011;19136;47.032;15.502;2023-04-21T02:31:26;13.65;;;7.35;;
32780;SDS011;19136;47.032;15.502;2023-04-21T02:33:51;11.95;;;7.72;;
32780;SDS011;19136;47.032;15.502;2023-04-21T02:36:18;14.38;;;8.15;;
32780;SDS011;19136;47.032;15.502;2023-04-21T02:38:44;12.00;;;7.90;;
32780;SDS011;19136;47.032;15.502;2023-04-21T02:41:10;19.92;;;8.45;;
32780;SDS011;19136;47.032;15.502;2023-04-21T02:43:36;17.25;;;8.25;;
32780;SDS011;19136;47.032;15.502;2023-04-21T02:46:05;14.93;;;7.70;;
32780;SDS011;19136;47.032;15.502;2023-04-21T02:48:32;11.18;;;7.10;;
32780;SDS011;19136;47.032;15.502;2023-04-21T02:50:58;17.48;;;8.60;;
32780;SDS011;19136;47.032;15.502;2023-04-21T02:53:24;13.13;;;7.75;;
32780;SDS011;19136;47.032;15.502;2023-04-21T02:55:51;17.38;;;8.43;;
32780;SDS011;19136;47.032;15.502;2023-04-21T02:58:17;11.55;;;7.72;;
32780;SDS011;19136;47.032;15.502;2023-04-21T03:00:43;15.40;;;7.60;;
32780;SDS011;19136;47.032;15.502;2023-04-21T03:03:09;13.75;;;7.97;;
32780;SDS011;19136;47.032;15.502;2023-04-21T03:05:34;10.00;;;6.90;;
32780;SDS011;19136;47.032;15.502;2023-04-21T03:08:00;16.30;;;9.65;;
32780;SDS011;19136;47.032;15.502;2023-04-21T03:10:26;21.10;;;9.95;;
32780;SDS011;19136;47.032;15.502;2023-04-21T03:12:54;21.92;;;8.65;;
32780;SDS011;19136;47.032;15.502;2023-04-21T03:15:20;19.23;;;9.38;;
32780;SDS011;19136;47.032;15.502;2023-04-21T03:17:46;19.48;;;8.82;;
32780;SDS011;19136;47.032;15.502;2023-04-21T03:20:12;16.63;;;8.25;;
32780;SDS011;19136;47.032;15.502;2023-04-21T03:22:38;15.57;;;8.75;;
32780;SDS011;19136;47.032;15.502;2023-04-21T03:25:04;14.65;;;8.95;;
32780;SDS011;19136;47.032;15.502;2023-04-21T03:27:31;15.80;;;7.75;;
32780;SDS011;19136;47.032;15.502;2023-04-21T03:29:57;17.08;;;7.47;;
32780;SDS011;19136;47.032;15.502;2023-04-21T03:32:23;11.73;;;7.10;;
32780;SDS011;19136;47.032;15.502;2023-04-21T03:34:49;12.43;;;7.20;;
32780;SDS011;19136;47.032;15.502;2023-04-21T03:37:15;14.75;;;6.13;;
32780;SDS011;19136;47.032;15.502;2023-04-21T03:39:41;14.77;;;8.27;;
32780;SDS011;19136;47.032;15.502;2023-04-21T03:42:07;13.60;;;7.55;;
32780;SDS011;19136;47.032;15.502;2023-04-21T03:44:32;18.50;;;7.82;;
32780;SDS011;19136;47.032;15.502;2023-04-21T03:47:00;10.43;;;7.25;;
32780;SDS011;19136;47.032;15.502;2023-04-21T03:49:27;14.05;;;7.30;;
32780;SDS011;19136;47.032;15.502;2023-04-21T03:51:53;12.95;;;7.07;;
32780;SDS011;19136;47.032;15.502;2023-04-21T03:54:19;13.07;;;7.45;;
32780;SDS011;19136;47.032;15.502;2023-04-21T03:56:44;12.38;;;8.35;;
32780;SDS011;19136;47.032;15.502;2023-04-21T03:59:10;19.60;;;9.00;;
32780;SDS011;19136;47.032;15.502;2023-04-21T04:01:35;13.10;;;8.02;;
32780;SDS011;19136;47.032;15.502;2023-04-21T04:04:01;15.27;;;7.90;;
32780;SDS011;19136;47.032;15.502;2023-04-21T04:06:27;14.70;;;7.72;;
32780;SDS011;19136;47.032;15.502;2023-04-21T04:08:52;14.43;;;8.48;;
32780;SDS011;19136;47.032;15.502;2023-04-21T04:11:18;13.00;;;8.05;;
32780;SDS011;19136;47.032;15.502;2023-04-21T04:13:44;13.70;;;7.93;;
32780;SDS011;19136;47.032;15.502;2023-04-21T04:16:09;25.75;;;8.35;;
32780;SDS011;19136;47.032;15.502;2023-04-21T04:18:35;16.33;;;8.00;;
32780;SDS011;19136;47.032;15.502;2023-04-21T04:21:04;13.75;;;7.28;;
32780;SDS011;19136;47.032;15.502;2023-04-21T04:23:33;14.97;;;8.30;;
32780;SDS011;19136;47.032;15.502;2023-04-21T04:25:59;18.15;;;7.10;;
32780;SDS011;19136;47.032;15.502;2023-04-21T04:28:26;16.50;;;8.48;;
32780;SDS011;19136;47.032;15.502;2023-04-21T04:30:51;14.07;;;7.90;;
32780;SDS011;19136;47.032;15.502;2023-04-21T04:33:17;13.52;;;7.10;;
32780;SDS011;19136;47.032;15.502;2023-04-21T04:35:43;15.10;;;8.63;;
32780;SDS011;19136;47.032;15.502;2023-04-21T04:38:08;16.08;;;7.30;;
32780;SDS011;19136;47.032;15.502;2023-04-21T04:40:34;13.90;;;7.35;;
32780;SDS011;19136;47.032;15.502;2023-04-21T04:43:00;13.48;;;7.32;;
32780;SDS011;19136;47.032;15.502;2023-04-21T04:45:27;17.42;;;9.40;;
32780;SDS011;19136;47.032;15.502;2023-04-21T04:47:54;14.63;;;8.02;;
32780;SDS011;19136;47.032;15.502;2023-04-21T04:50:20;12.20;;;7.15;;
32780;SDS011;19136;47.032;15.502;2023-04-21T04:52:45;15.38;;;8.32;;
32780;SDS011;19136;47.032;15.502;2023-04-21T04:55:12;13.07;;;7.15;;
32780;SDS011;19136;47.032;15.502;2023-04-21T04:57:38;16.23;;;7.13;;
32780;SDS011;19136;47.032;15.502;2023-04-21T05:00:05;15.32;;;8.20;;
32780;SDS011;19136;47.032;15.502;2023-04-21T05:02:32;15.48;;;7.85;;
32780;SDS011;19136;47.032;15.502;2023-04-21T05:04:59;17.52;;;7.80;;
32780;SDS011;19136;47.032;15.502;2023-04-21T05:07:25;15.75;;;6.85;;
32780;SDS011;19136;47.032;15.502;2023-04-21T05:09:50;15.15;;;7.07;;
32780;SDS011;19136;47.032;15.502;2023-04-21T05:12:16;18.25;;;7.95;;
32780;SDS011;19136;47.032;15.502;2023-04-21T05:14:41;19.80;;;8.13;;
32780;SDS011;19136;47.032;15.502;2023-04-21T05:17:07;23.10;;;10.48;;
32780;SDS011;19136;47.032;15.502;2023-04-21T05:19:36;21.33;;;9.82;;
32780;SDS011;19136;47.032;15.502;2023-04-21T05:22:02;23.02;;;10.55;;
32780;SDS011;19136;47.032;15.502;2023-04-21T05:24:31;17.20;;;7.97;;
32780;SDS011;19136;47.032;15.502;2023-04-21T05:26:57;18.92;;;8.48;;
32780;SDS011;19136;47.032;15.502;2023-04-21T05:29:23;22.00;;;9.65;;
32780;SDS011;19136;47.032;15.502;2023-04-21T05:31:48;19.90;;;8.75;;
32780;SDS011;19136;47.032;15.502;2023-04-21T05:34:14;16.60;;;8.50;;
32780;SDS011;19136;47.032;15.502;2023-04-21T05:36:40;20.20;;;8.88;;
32780;SDS011;19136;47.032;15.502;2023-04-21T05:39:07;16.45;;;8.60;;
32780;SDS011;19136;47.032;15.502;2023-04-21T05:41:32;15.90;;;7.90;;
32780;SDS011;19136;47.032;15.502;2023-04-21T05:43:58;17.27;;;8.32;;
32780;SDS011;19136;47.032;15.502;2023-04-21T05:46:24;18.90;;;8.23;;
32780;SDS011;19136;47.032;15.502;2023-04-21T05:48:49;16.42;;;8.20;;
32780;SDS011;19136;47.032;15.502;2023-04-21T05:51:15;19.05;;;8.57;;
32780;SDS011;19136;47.032;15.502;2023-04-21T05:53:42;22.10;;;8.35;;
32780;SDS011;19136;47.032;15.502;2023-04-21T05:56:09;22.25;;;8.13;;
32780;SDS011;19136;47.032;15.502;2023-04-21T05:58:35;15.02;;;8.48;;
32780;SDS011;19136;47.032;15.502;2023-04-21T06:01:01;11.63;;;7.15;;
32780;SDS011;19136;47.032;15.502;2023-04-21T06:03:26;19.55;;;7.25;;
32780;SDS011;19136;47.032;15.502;2023-04-21T06:05:53;14.10;;;7.38;;
32780;SDS011;19136;47.032;15.502;2023-04-21T06:08:19;19.98;;;9.95;;
32780;SDS011;19136;47.032;15.502;2023-04-21T06:10:46;25.48;;;11.55;;
32780;SDS011;19136;47.032;15.502;2023-04-21T06:13:11;15.95;;;9.32;;
32780;SDS011;19136;47.032;15.502;2023-04-21T06:15:37;18.35;;;10.13;;
32780;SDS011;19136;47.032;15.502;2023-04-21T06:18:02;12.00;;;8.20;;
32780;SDS011;19136;47.032;15.502;2023-04-21T06:20:28;17.27;;;7.75;;
32780;SDS011;19136;47.032;15.502;2023-04-21T06:22:54;17.58;;;7.18;;
32780;SDS011;19136;47.032;15.502;2023-04-21T06:25:19;17.38;;;7.88;;
32780;SDS011;19136;47.032;15.502;2023-04-21T06:27:45;18.17;;;7.22;;
32780;SDS011;19136;47.032;15.502;2023-04-21T06:30:12;13.85;;;7.70;;
32780;SDS011;19136;47.032;15.502;2023-04-21T06:32:38;17.65;;;8.32;;
32780;SDS011;19136;47.032;15.502;2023-04-21T06:35:04;18.95;;;7.25;;
32780;SDS011;19136;47.032;15.502;2023-04-21T06:37:30;16.48;;;6.97;;
32780;SDS011;19136;47.032;15.502;2023-04-21T06:39:56;22.42;;;7.68;;
32780;SDS011;19136;47.032;15.502;2023-04-21T06:42:21;15.18;;;8.30;;
32780;SDS011;19136;47.032;15.502;2023-04-21T06:44:47;10.85;;;7.30;;
32780;SDS011;19136;47.032;15.502;2023-04-21T06:47:13;10.57;;;7.10;;
32780;SDS011;19136;47.032;15.502;2023-04-21T06:49:40;15.57;;;7.55;;
32780;SDS011;19136;47.032;15.502;2023-04-21T06:52:06;17.75;;;7.80;;
32780;SDS011;19136;47.032;15.502;2023-04-21T06:54:32;12.63;;;7.95;;
32780;SDS011;19136;47.032;15.502;2023-04-21T06:56:58;20.25;;;10.55;;
32780;SDS011;19136;47.032;15.502;2023-04-21T06:59:23;18.52;;;8.63;;
32780;SDS011;19136;47.032;15.502;2023-04-21T07:01:49;22.88;;;9.80;;
32780;SDS011;19136;47.032;15.502;2023-04-21T07:04:19;14.35;;;8.30;;
32780;SDS011;19136;47.032;15.502;2023-04-21T07:06:45;15.38;;;9.23;;
32780;SDS011;19136;47.032;15.502;2023-04-21T07:09:11;14.55;;;7.53;;
32780;SDS011;19136;47.032;15.502;2023-04-21T07:11:37;16.42;;;7.43;;
32780;SDS011;19136;47.032;15.502;2023-04-21T07:14:02;15.20;;;6.90;;
32780;SDS011;19136;47.032;15.502;2023-04-21T07:16:28;16.05;;;7.07;;
32780;SDS011;19136;47.032;15.502;2023-04-21T07:18:54;14.75;;;7.72;;
32780;SDS011;19136;47.032;15.502;2023-04-21T07:21:20;11.18;;;6.53;;
32780;SDS011;19136;47.032;15.502;2023-04-21T07:23:46;11.68;;;7.07;;
32780;SDS011;19136;47.032;15.502;2023-04-21T07:26:11;21.00;;;7.03;;
32780;SDS011;19136;47.032;15.502;2023-04-21T07:28:37;13.32;;;7.20;;
32780;SDS011;19136;47.032;15.502;2023-04-21T07:31:04;30.20;;;8.10;;
32780;SDS011;19136;47.032;15.502;2023-04-21T07:33:30;22.50;;;7.68;;
32780;SDS011;19136;47.032;15.502;2023-04-21T07:35:55;11.55;;;7.60;;
32780;SDS011;19136;47.032;15.502;2023-04-21T07:38:21;12.55;;;7.32;;
32780;SDS011;19136;47.032;15.502;2023-04-21T07:40:47;12.30;;;7.43;;
32780;SDS011;19136;47.032;15.502;2023-04-21T07:43:12;20.52;;;8.27;;
32780;SDS011;19136;47.032;15.502;2023-04-21T07:45:39;23.10;;;9.35;;
32780;SDS011;19136;47.032;15.502;2023-04-21T07:48:05;24.33;;;9.68;;
32780;SDS011;19136;47.032;15.502;2023-04-21T07:50:32;22.48;;;8.90;;
32780;SDS011;19136;47.032;15.502;2023-04-21T07:52:59;22.52;;;9.18;;
32780;SDS011;19136;47.032;15.502;2023-04-21T07:55:27;14.88;;;8.40;;
32780;SDS011;19136;47.032;15.502;2023-04-21T07:57:53;20.67;;;9.65;;
32780;SDS011;19136;47.032;15.502;2023-04-21T08:00:18;16.98;;;9.55;;
32780;SDS011;19136;47.032;15.502;2023-04-21T08:02:44;17.77;;;8.77;;
32780;SDS011;19136;47.032;15.502;2023-04-21T08:05:10;19.67;;;8.95;;
32780;SDS011;19136;47.032;15.502;2023-04-21T08:07:36;19.63;;;9.90;;
32780;SDS011;19136;47.032;15.502;2023-04-21T08:10:02;17.92;;;9.30;;
32780;SDS011;19136;47.032;15.502;2023-04-21T08:12:28;15.93;;;9.63;;
32780;SDS011;19136;47.032;15.502;2023-04-21T08:14:53;15.13;;;9.60;;
32780;SDS011;19136;47.032;15.502;2023-04-21T08:17:19;15.77;;;8.35;;
32780;SDS011;19136;47.032;15.502;2023-04-21T08:19:45;16.35;;;8.27;;
32780;SDS011;19136;47.032;15.502;2023-04-21T08:22:11;15.40;;;8.68;;
32780;SDS011;19136;47.032;15.502;2023-04-21T08:24:36;17.30;;;8.57;;
32780;SDS011;19136;47.032;15.502;2023-04-21T08:27:02;12.60;;;8.25;;
32780;SDS011;19136;47.032;15.502;2023-04-21T08:29:28;15.20;;;8.85;;
32780;SDS011;19136;47.032;15.502;2023-04-21T08:31:54;14.30;;;7.63;;
32780;SDS011;19136;47.032;15.502;2023-04-21T08:34:20;12.93;;;7.57;;
32780;SDS011;19136;47.032;15.502;2023-04-21T08:36:46;13.13;;;7.60;;
32780;SDS011;19136;47.032;15.502;2023-04-21T08:39:12;14.93;;;7.50;;
32780;SDS011;19136;47.032;15.502;2023-04-21T08:41:38;10.07;;;6.93;;
32780;SDS011;19136;47.032;15.502;2023-04-21T08:44:10;14.05;;;6.63;;
32780;SDS011;19136;47.032;15.502;2023-04-21T08:46:36;13.95;;;6.05;;
32780;SDS011;19136;47.032;15.502;2023-04-21T08:49:02;13.52;;;6.20;;
32780;SDS011;19136;47.032;15.502;2023-04-21T08:51:28;13.15;;;7.68;;
32780;SDS011;19136;47.032;15.502;2023-04-21T08:53:55;12.80;;;8.90;;
32780;SDS011;19136;47.032;15.502;2023-04-21T08:56:23;18.33;;;7.70;;
32780;SDS011;19136;47.032;15.502;2023-04-21T08:58:49;16.95;;;7.10;;
32780;SDS011;19136;47.032;15.502;2023-04-21T09:01:14;11.82;;;6.80;;
32780;SDS011;19136;47.032;15.502;2023-04-21T09:03:40;11.32;;;6.90;;
32780;SDS011;19136;47.032;15.502;2023-04-21T09:06:07;18.48;;;7.03;;
32780;SDS011;19136;47.032;15.502;2023-04-21T09:08:35;17.13;;;6.45;;
32780;SDS011;19136;47.032;15.502;2023-04-21T09:11:02;14.60;;;6.00;;
32780;SDS011;19136;47.032;15.502;2023-04-21T09:13:29;18.42;;;6.47;;
32780;SDS011;19136;47.032;15.502;2023-04-21T09:15:59;10.20;;;5.72;;
32780;SDS011;19136;47.032;15.502;2023-04-21T09:18:26;13.13;;;6.03;;
32780;SDS011;19136;47.032;15.502;2023-04-21T09:23:31;12.85;;;5.53;;
32780;SDS011;19136;47.032;15.502;2023-04-21T09:28:29;15.32;;;8.63;;
32780;SDS011;19136;47.032;15.502;2023-04-21T09:30:56;15.95;;;8.15;;
32780;SDS011;19136;47.032;15.502;2023-04-21T09:33:22;13.10;;;7.55;;
32780;SDS011;19136;47.032;15.502;2023-04-21T09:35:47;12.55;;;7.45;;
32780;SDS011;19136;47.032;15.502;2023-04-21T09:38:13;10.55;;;7.20;;
32780;SDS011;19136;47.032;15.502;2023-04-21T09:40:39;14.43;;;7.43;;
32780;SDS011;19136;47.032;15.502;2023-04-21T09:43:06;13.90;;;7.63;;
32780;SDS011;19136;47.032;15.502;2023-04-21T09:45:32;18.73;;;7.65;;
32780;SDS011;19136;47.032;15.502;2023-04-21T09:47:58;12.73;;;6.15;;
32780;SDS011;19136;47.032;15.502;2023-04-21T09:50:26;20.10;;;7.75;;
32780;SDS011;19136;47.032;15.502;2023-04-21T09:52:53;14.65;;;7.20;;
32780;SDS011;19136;47.032;15.502;2023-04-21T09:55:27;18.42;;;7.00;;
32780;SDS011;19136;47.032;15.502;2023-04-21T09:57:58;16.42;;;7.22;;
32780;SDS011;19136;47.032;15.502;2023-04-21T10:00:25;143.25;;;14.18;;
32780;SDS011;19136;47.032;15.502;2023-04-21T10:02:53;16.35;;;7.13;;
32780;SDS011;19136;47.032;15.502;2023-04-21T10:05:19;13.43;;;6.22;;
32780;SDS011;19136;47.032;15.502;2023-04-21T10:07:45;15.20;;;5.50;;
32780;SDS011;19136;47.032;15.502;2023-04-21T10:10:32;14.02;;;4.68;;
32780;SDS011;19136;47.032;15.502;2023-04-21T10:12:58;9.25;;;4.18;;
32780;SDS011;19136;47.032;15.502;2023-04-21T10:15:28;18.40;;;5.55;;
32780;SDS011;19136;47.032;15.502;2023-04-21T10:20:50;12.07;;;4.75;;
32780;SDS011;19136;47.032;15.502;2023-04-21T10:23:27;8.88;;;4.30;;
32780;SDS011;19136;47.032;15.502;2023-04-21T10:25:54;8.80;;;4.95;;
32780;SDS011;19136;47.032;15.502;2023-04-21T10:31:21;18.85;;;5.78;;
32780;SDS011;19136;47.032;15.502;2023-04-21T10:39:10;10.50;;;5.73;;
32780;SDS011;19136;47.032;15.502;2023-04-21T10:41:43;9.98;;;5.40;;
32780;SDS011;19136;47.032;15.502;2023-04-21T10:44:11;8.00;;;4.63;;
32780;SDS011;19136;47.032;15.502;2023-04-21T10:49:07;8.50;;;5.70;;
32780;SDS011;19136;47.032;15.502;2023-04-21T10:54:40;10.02;;;4.97;;
32780;SDS011;19136;47.032;15.502;2023-04-21T10:57:13;13.90;;;5.93;;
32780;SDS011;19136;47.032;15.502;2023-04-21T10:59:43;12.68;;;4.85;;
32780;SDS011;19136;47.032;15.502;2023-04-21T11:02:13;6.97;;;4.15;;
32780;SDS011;19136;47.032;15.502;2023-04-21T11:04:41;14.60;;;6.85;;
32780;SDS011;19136;47.032;15.502;2023-04-21T11:07:14;10.13;;;5.87;;
32780;SDS011;19136;47.032;15.502;2023-04-21T11:09:41;8.23;;;4.78;;
32780;SDS011;19136;47.032;15.502;2023-04-21T11:12:08;9.38;;;5.18;;
32780;SDS011;19136;47.032;15.502;2023-04-21T11:14:36;8.50;;;5.07;;
32780;SDS011;19136;47.032;15.502;2023-04-21T11:17:02;11.15;;;5.07;;
32780;SDS011;19136;47.032;15.502;2023-04-21T11:19:30;14.10;;;5.20;;
32780;SDS011;19136;47.032;15.502;2023-04-21T11:21:56;8.18;;;4.70;;
32780;SDS011;19136;47.032;15.502;2023-04-21T11:24:22;10.48;;;5.03;;
32780;SDS011;19136;47.032;15.502;2023-04-21T11:26:48;9.30;;;5.22;;
32780;SDS011;19136;47.032;15.502;2023-04-21T11:29:14;11.20;;;4.80;;
32780;SDS011;19136;47.032;15.502;2023-04-21T11:31:43;11.73;;;4.95;;
32780;SDS011;19136;47.032;15.502;2023-04-21T11:34:13;14.30;;;5.75;;
32780;SDS011;19136;47.032;15.502;2023-04-21T11:36:41;12.02;;;5.55;;
32780;SDS011;19136;47.032;15.502;2023-04-21T11:39:13;11.05;;;5.47;;
32780;SDS011;19136;47.032;15.502;2023-04-21T11:41:44;15.88;;;5.78;;
32780;SDS011;19136;47.032;15.502;2023-04-21T11:44:12;17.85;;;5.93;;
32780;SDS011;19136;47.032;15.502;2023-04-21T11:46:44;8.80;;;5.03;;
32780;SDS011;19136;47.032;15.502;2023-04-21T11:49:11;15.63;;;5.28;;
32780;SDS011;19136;47.032;15.502;2023-04-21T11:51:40;6.43;;;4.20;;
32780;SDS011;19136;47.032;15.502;2023-04-21T11:54:08;13.48;;;5.57;;
32780;SDS011;19136;47.032;15.502;2023-04-21T11:56:35;9.55;;;4.78;;
32780;SDS011;19136;47.032;15.502;2023-04-21T11:59:15;11.93;;;5.22;;
32780;SDS011;19136;47.032;15.502;2023-04-21T12:01:44;10.07;;;5.50;;
32780;SDS011;19136;47.032;15.502;2023-04-21T12:04:14;11.85;;;5.45;;
32780;SDS011;19136;47.032;15.502;2023-04-21T12:06:41;11.13;;;5.50;;
32780;SDS011;19136;47.032;15.502;2023-04-21T12:09:07;10.10;;;5.45;;
32780;SDS011;19136;47.032;15.502;2023-04-21T12:11:33;11.48;;;5.30;;
32780;SDS011;19136;47.032;15.502;2023-04-21T12:14:00;12.82;;;5.90;;
32780;SDS011;19136;47.032;15.502;2023-04-21T12:16:26;8.07;;;4.88;;
32780;SDS011;19136;47.032;15.502;2023-04-21T12:18:53;12.80;;;6.00;;
32780;SDS011;19136;47.032;15.502;2023-04-21T12:21:25;9.90;;;5.15;;
32780;SDS011;19136;47.032;15.502;2023-04-21T12:23:52;13.13;;;4.72;;
32780;SDS011;19136;47.032;15.502;2023-04-21T12:26:18;12.60;;;6.15;;
32780;SDS011;19136;47.032;15.502;2023-04-21T12:28:43;10.63;;;5.70;;
32780;SDS011;19136;47.032;15.502;2023-04-21T12:31:09;13.25;;;5.57;;
32780;SDS011;19136;47.032;15.502;2023-04-21T12:33:35;10.85;;;5.18;;
32780;SDS011;19136;47.032;15.502;2023-04-21T12:36:01;7.88;;;4.47;;
32780;SDS011;19136;47.032;15.502;2023-04-21T12:38:26;9.93;;;5.15;;
32780;SDS011;19136;47.032;15.502;2023-04-21T12:40:52;10.38;;;5.47;;
32780;SDS011;19136;47.032;15.502;2023-04-21T12:43:18;12.25;;;5.45;;
32780;SDS011;19136;47.032;15.502;2023-04-21T12:45:43;11.98;;;5.93;;
32780;SDS011;19136;47.032;15.502;2023-04-21T12:48:09;13.30;;;5.65;;
32780;SDS011;19136;47.032;15.502;2023-04-21T12:50:34;13.38;;;6.35;;
32780;SDS011;19136;47.032;15.502;2023-04-21T12:53:00;14.57;;;6.85;;
32780;SDS011;19136;47.032;15.502;2023-04-21T12:55:26;13.40;;;6.50;;
32780;SDS011;19136;47.032;15.502;2023-04-21T12:57:51;11.23;;;5.80;;
32780;SDS011;19136;47.032;15.502;2023-04-21T13:00:17;14.27;;;6.35;;
32780;SDS011;19136;47.032;15.502;2023-04-21T13:02:43;14.05;;;6.82;;
32780;SDS011;19136;47.032;15.502;2023-04-21T13:05:08;14.15;;;6.50;;
32780;SDS011;19136;47.032;15.502;2023-04-21T13:07:36;15.40;;;5.82;;
32780;SDS011;19136;47.032;15.502;2023-04-21T13:10:02;11.48;;;6.43;;
32780;SDS011;19136;47.032;15.502;2023-04-21T13:12:30;13.70;;;7.20;;
32780;SDS011;19136;47.032;15.502;2023-04-21T13:14:56;12.48;;;6.28;;
32780;SDS011;19136;47.032;15.502;2023-04-21T13:17:22;15.15;;;7.00;;
32780;SDS011;19136;47.032;15.502;2023-04-21T13:19:48;12.90;;;7.32;;
32780;SDS011;19136;47.032;15.502;2023-04-21T13:22:13;8.60;;;4.40;;
32780;SDS011;19136;47.032;15.502;2023-04-21T13:24:39;12.57;;;6.18;;
32780;SDS011;19136;47.032;15.502;2023-04-21T13:27:05;20.92;;;6.25;;
32780;SDS011;19136;47.032;15.502;2023-04-21T13:29:30;18.17;;;7.55;;
32780;SDS011;19136;47.032;15.502;2023-04-21T13:31:59;17.00;;;6.45;;
32780;SDS011;19136;47.032;15.502;2023-04-21T13:34:28;8.57;;;3.65;;
32780;SDS011;19136;47.032;15.502;2023-04-21T13:36:55;7.65;;;3.40;;
32780;SDS011;19136;47.032;15.502;2023-04-21T13:39:20;8.82;;;3.72;;
32780;SDS011;19136;47.032;15.502;2023-04-21T13:41:46;8.30;;;4.32;;
32780;SDS011;19136;47.032;15.502;2023-04-21T13:44:12;11.55;;;4.93;;
32780;SDS011;19136;47.032;15.502;2023-04-21T13:46:38;12.10;;;4.57;;
32780;SDS011;19136;47.032;15.502;2023-04-21T13:49:04;10.27;;;4.05;;
32780;SDS011;19136;47.032;15.502;2023-04-21T13:51:30;15.15;;;4.10;;
32780;SDS011;19136;47.032;15.502;2023-04-21T13:53:56;9.00;;;4.55;;
32780;SDS011;19136;47.032;15.502;2023-04-21T13:56:22;11.38;;;4.00;;
32780;SDS011;19136;47.032;15.502;2023-04-21T13:58:48;11.98;;;4.97;;
32780;SDS011;19136;47.032;15.502;2023-04-21T14:01:14;16.35;;;4.20;;
32780;SDS011;19136;47.032;15.502;2023-04-21T14:03:39;16.25;;;5.45;;
32780;SDS011;19136;47.032;15.502;2023-04-21T14:06:05;9.15;;;4.40;;
32780;SDS011;19136;47.032;15.502;2023-04-21T14:08:31;9.02;;;4.07;;
32780;SDS011;19136;47.032;15.502;2023-04-21T14:10:56;9.40;;;3.42;;
32780;SDS011;19136;47.032;15.502;2023-04-21T14:13:23;7.47;;;3.05;;
32780;SDS011;19136;47.032;15.502;2023-04-21T14:15:51;5.88;;;3.22;;
32780;SDS011;19136;47.032;15.502;2023-04-21T14:18:17;6.47;;;3.47;;
32780;SDS011;19136;47.032;15.502;2023-04-21T14:20:43;6.47;;;3.67;;
32780;SDS011;19136;47.032;15.502;2023-04-21T14:23:09;10.38;;;3.78;;
32780;SDS011;19136;47.032;15.502;2023-04-21T14:25:35;8.25;;;3.47;;
32780;SDS011;19136;47.032;15.502;2023-04-21T14:28:00;8.13;;;3.60;;
32780;SDS011;19136;47.032;15.502;2023-04-21T14:30:29;8.43;;;4.18;;
32780;SDS011;19136;47.032;15.502;2023-04-21T14:32:54;12.32;;;3.65;;
32780;SDS011;19136;47.032;15.502;2023-04-21T14:35:20;5.13;;;3.63;;
32780;SDS011;19136;47.032;15.502;2023-04-21T14:37:46;7.93;;;4.07;;
32780;SDS011;19136;47.032;15.502;2023-04-21T14:40:11;8.95;;;3.95;;
32780;SDS011;19136;47.032;15.502;2023-04-21T14:42:37;10.85;;;3.95;;